.
WxDataArchive / Data Records for 2006-12-06
2006-12-05 December 2006 2006-12-07

Data Records for Wednesday, 06 December 2006

Time	Temp	Chill	HIndex	Humid	Dewpt	 Wind 	HiWind	WindDir	Rain 	Barom 
-----	----	-----	------	-----	-----	------	------	-------	-----	----- 
00:00	31.2	31.2	31.2	60	19.0	1	4	270	0.00	30.056 
00:05	31.2	31.2	31.2	60	19.0	1	4	248	0.00	30.056 
00:10	31.2	31.2	31.2	60	19.0	1	4	270	0.00	30.056 
00:15	31.3	31.3	31.3	60	19.0	1	6	248	0.00	30.051 
00:20	31.3	31.3	31.3	60	19.0	1	5	270	0.00	30.051 
00:25	31.5	31.5	31.5	61	19.6	1	4	248	0.00	30.051 
00:30	31.5	31.5	31.5	61	19.6	1	7	270	0.00	30.037 
00:35	31.8	31.8	31.8	61	19.9	1	7	248	0.00	30.037 
00:40	32.1	32.1	32.1	61	20.2	2	6	248	0.00	30.037 
00:45	32.4	32.4	32.4	61	20.5	2	7	248	0.00	30.034 
00:50	32.7	32.7	32.7	60	20.4	3	6	248	0.00	30.034 
00:55	32.9	32.9	32.9	60	20.6	2	6	248	0.00	30.034 
01:00	33.2	33.2	33.2	60	20.8	3	10	248	0.00	30.023 
01:05	33.5	33.5	33.5	60	21.1	3	13	248	0.00	30.023 
01:10	34.0	30.4	34.0	59	21.2	4	11	248	0.00	30.023 
01:15	34.3	34.3	34.3	59	21.5	3	10	248	0.00	30.016 
01:20	34.6	31.1	34.6	59	21.8	4	11	248	0.00	30.016 
01:25	34.9	31.4	34.9	58	21.6	4	15	248	0.00	30.016 
01:30	35.2	30.8	35.2	58	21.9	5	12	248	0.00	30.014 
01:35	35.3	31.0	35.3	58	22.0	5	13	270	0.00	30.014 
01:40	35.3	31.9	35.3	58	22.0	4	10	248	0.00	30.014 
01:45	35.5	32.1	35.5	58	22.2	4	9	248	0.00	30.004 
01:50	35.5	32.1	35.5	58	22.2	4	11	248	0.00	30.004 
01:55	35.6	32.2	35.6	58	22.3	4	10	248	0.00	30.004 
02:00	35.6	32.2	35.6	59	22.7	4	7	248	0.00	29.996 
02:05	35.8	32.5	35.8	59	22.9	4	11	248	0.00	29.996 
02:10	35.8	32.5	35.8	59	22.9	4	15	248	0.00	29.996 
02:15	36.0	32.7	36.0	59	23.1	4	11	248	0.00	29.987 
02:20	36.0	32.7	36.0	59	23.1	4	10	248	0.00	29.987 
02:25	36.2	32.9	36.2	59	23.3	4	10	248	0.00	29.987 
02:30	36.5	32.4	36.5	59	23.6	5	10	248	0.00	29.980 
02:35	36.5	33.3	36.5	59	23.6	4	12	248	0.00	29.980 
02:40	36.8	32.7	36.8	58	23.4	5	14	248	0.00	29.980 
02:45	36.9	33.7	36.9	58	23.5	4	10	270	0.00	29.969 
02:50	36.9	32.8	36.9	58	23.5	5	11	270	0.00	29.969 
02:55	37.0	32.9	37.0	58	23.6	5	12	248	0.00	29.969 
03:00	36.9	32.8	36.9	58	23.5	5	15	248	0.00	29.965 
03:05	36.9	33.7	36.9	59	23.9	4	13	248	0.00	29.965 
03:10	36.9	33.7	36.9	59	23.9	4	12	248	0.00	29.965 
03:15	37.0	32.9	37.0	59	24.0	5	10	270	0.00	29.961 
03:20	36.9	33.7	36.9	59	23.9	4	10	270	0.00	29.961 
03:25	37.0	33.9	37.0	59	24.0	4	11	248	0.00	29.961 
03:30	37.0	33.9	37.0	59	24.0	4	10	248	0.00	29.951 
03:35	37.0	33.9	37.0	59	24.0	4	11	248	0.00	29.951 
03:40	37.0	33.9	37.0	59	24.0	4	9	248	0.00	29.951 
03:45	37.0	33.9	37.0	59	24.0	4	12	270	0.00	29.945 
03:50	36.9	36.9	36.9	60	24.3	3	9	248	0.00	29.945 
03:55	36.9	33.7	36.9	60	24.3	4	12	248	0.00	29.945 
04:00	36.9	32.8	36.9	60	24.3	5	11	248	0.00	29.938 
04:05	37.0	32.9	37.0	60	24.4	5	10	270	0.00	29.938 
04:10	37.0	33.9	37.0	60	24.4	4	15	248	0.00	29.938 
04:15	37.0	32.9	37.0	60	24.4	5	12	270	0.00	29.933 
04:20	37.0	33.9	37.0	60	24.4	4	11	248	0.00	29.933 
04:25	37.0	37.0	37.0	60	24.4	3	10	248	0.00	29.933 
04:30	37.0	33.9	37.0	60	24.4	4	12	248	0.00	29.931 
04:35	37.0	32.9	37.0	60	24.4	5	12	248	0.00	29.931 
04:40	36.9	33.7	36.9	60	24.3	4	9	248	0.00	29.931 
04:45	36.9	33.7	36.9	60	24.3	4	12	270	0.00	29.918 
04:50	36.9	33.7	36.9	61	24.7	4	12	248	0.00	29.918 
04:55	36.8	33.6	36.8	61	24.6	4	10	248	0.00	29.918 
05:00	36.6	36.6	36.6	61	24.4	2	5	248	0.00	29.916 
05:05	36.6	33.4	36.6	61	24.4	4	10	270	0.00	29.916 
05:10	36.5	36.5	36.5	61	24.3	3	7	270	0.00	29.916 
05:15	36.5	33.3	36.5	61	24.3	4	9	248	0.00	29.916 
05:20	36.3	36.3	36.3	62	24.5	3	6	248	0.00	29.916 
05:25	36.2	36.2	36.2	62	24.5	3	5	248	0.00	29.916 
05:30	36.2	36.2	36.2	62	24.5	3	14	248	0.00	29.914 
05:35	36.2	32.9	36.2	62	24.5	4	13	248	0.00	29.914 
05:40	36.2	32.9	36.2	62	24.5	4	7	248	0.00	29.914 
05:45	36.2	36.2	36.2	62	24.5	3	7	248	0.00	29.909 
05:50	36.0	32.7	36.0	62	24.3	4	10	248	0.00	29.909 
05:55	36.0	36.0	36.0	62	24.3	3	7	248	0.00	29.909 
06:00	35.9	32.6	35.9	63	24.5	4	12	248	0.00	29.905 
06:05	35.9	35.9	35.9	63	24.5	3	7	248	0.00	29.905 
06:10	35.8	35.8	35.8	63	24.5	3	7	248	0.00	29.905 
06:15	35.6	35.6	35.6	64	24.6	3	12	248	0.00	29.903 
06:20	35.5	35.5	35.5	64	24.5	3	10	248	0.00	29.903 
06:25	35.3	35.3	35.3	64	24.4	3	7	248	0.00	29.903 
06:30	35.3	35.3	35.3	65	24.7	3	7	248	0.00	29.897 
06:35	35.3	31.9	35.3	65	24.7	4	11	248	0.00	29.897 
06:40	35.3	31.9	35.3	65	24.7	4	10	248	0.00	29.897 
06:45	35.3	31.9	35.3	65	24.7	4	10	248	0.00	29.902 
06:50	35.3	31.9	35.3	65	24.7	4	10	248	0.00	29.902 
06:55	35.2	35.2	35.2	65	24.6	3	7	248	0.00	29.902 
07:00	35.0	35.0	35.0	65	24.4	3	6	248	0.00	29.886 
07:05	34.9	34.9	34.9	65	24.3	3	7	248	0.00	29.886 
07:10	34.9	31.4	34.9	66	24.7	4	10	248	0.00	29.886 
07:15	34.9	31.4	34.9	65	24.3	4	9	270	0.00	29.893 
07:20	34.9	31.4	34.9	65	24.3	4	11	248	0.00	29.893 
07:25	34.9	34.9	34.9	66	24.7	3	9	248	0.00	29.893 
07:30	34.9	34.9	34.9	66	24.7	3	10	248	0.00	29.889 
07:35	34.9	31.4	34.9	66	24.7	4	11	248	0.00	29.889 
07:40	34.9	34.9	34.9	66	24.7	3	7	248	0.00	29.889 
07:45	34.7	34.7	34.7	66	24.5	3	7	248	0.00	29.889 
07:50	34.7	31.2	34.7	66	24.5	4	13	270	0.00	29.889 
07:55	34.7	31.2	34.7	66	24.5	4	7	248	0.00	29.889 
08:00	34.7	31.2	34.7	66	24.5	4	11	248	0.00	29.887 
08:05	34.9	30.5	34.9	66	24.7	5	10	270	0.00	29.887 
08:10	34.7	34.7	34.7	66	24.5	3	11	248	0.00	29.887 
08:15	34.7	31.2	34.7	66	24.5	4	11	248	0.00	29.891 
08:20	34.7	34.7	34.7	67	24.9	3	7	248	0.00	29.891 
08:25	34.7	34.7	34.7	66	24.5	3	9	248	0.00	29.891 
08:30	34.9	34.9	34.9	66	24.7	3	8	248	0.00	29.894 
08:35	34.9	31.4	34.9	66	24.7	4	8	248	0.00	29.894 
08:40	34.9	34.9	34.9	66	24.7	3	7	248	0.00	29.894 
08:45	35.0	35.0	35.0	66	24.8	3	9	248	0.00	29.895 
08:50	35.2	35.2	35.2	66	25.0	3	8	270	0.00	29.895 
08:55	35.3	31.9	35.3	66	25.1	4	10	248	0.00	29.895 
09:00	35.5	31.2	35.5	65	24.9	5	11	248	0.00	29.897 
09:05	35.6	32.2	35.6	65	25.0	4	11	248	0.00	29.897 
09:10	35.8	32.5	35.8	65	25.2	4	7	248	0.00	29.897 
09:15	35.8	35.8	35.8	65	25.2	3	14	270	0.00	29.889 
09:20	35.9	31.7	35.9	65	25.3	5	13	270	0.00	29.889 
09:25	36.0	31.8	36.0	65	25.4	5	10	248	0.00	29.889 
09:30	36.2	32.0	36.2	64	25.2	5	15	248	0.00	29.897 
09:35	36.3	33.0	36.3	64	25.3	4	16	270	0.00	29.897 
09:40	36.3	36.3	36.3	64	25.3	3	7	270	0.00	29.897 
09:45	36.3	32.1	36.3	64	25.3	5	11	248	0.00	29.898 
09:50	36.5	32.4	36.5	64	25.5	5	11	270	0.00	29.898 
09:55	36.5	33.3	36.5	65	25.9	4	10	270	0.00	29.898 
10:00	36.5	33.3	36.5	64	25.5	4	10	248	0.00	29.899 
10:05	36.6	32.5	36.6	64	25.6	5	10	248	0.00	29.899 
10:10	36.6	33.4	36.6	64	25.6	4	13	248	0.00	29.899 
10:15	36.8	32.7	36.8	64	25.8	5	11	270	0.00	29.897 
10:20	36.8	32.7	36.8	64	25.8	5	12	248	0.00	29.897 
10:25	36.9	32.8	36.9	64	25.9	5	12	270	0.00	29.897 
10:30	37.0	32.2	37.0	64	26.0	6	16	270	0.00	29.897 
10:35	37.0	32.9	37.0	64	26.0	5	10	270	0.00	29.897 
10:40	37.0	33.9	37.0	64	26.0	4	11	248	0.00	29.897 
10:45	37.0	32.9	37.0	64	26.0	5	12	270	0.00	29.898 
10:50	36.9	33.7	36.9	64	25.9	4	11	248	0.00	29.898 
10:55	37.2	34.1	37.2	65	26.5	4	12	248	0.00	29.898 
11:00	37.6	34.5	37.6	64	26.5	4	7	248	0.00	29.889 
11:05	37.9	34.9	37.9	64	26.8	4	8	248	0.00	29.889 
11:10	38.5	35.6	38.5	63	27.0	4	14	248	0.00	29.889 
11:15	38.6	34.8	38.6	63	27.1	5	13	270	0.00	29.883 
11:20	38.9	35.2	38.9	62	27.0	5	13	270	0.00	29.883 
11:25	39.2	35.5	39.2	62	27.3	5	14	248	0.00	29.883 
11:30	39.5	35.2	39.5	62	27.6	6	17	248	0.00	29.882 
11:35	39.9	36.4	39.9	61	27.6	5	17	270	0.00	29.882 
11:40	40.1	35.9	40.1	60	27.3	6	16	270	0.00	29.882 
11:45	40.1	36.6	40.1	60	27.3	5	15	248	0.00	29.879 
11:50	40.2	36.0	40.2	60	27.4	6	17	270	0.00	29.879 
11:55	40.2	37.5	40.2	60	27.4	4	14	270	0.00	29.879 
12:00	40.1	35.9	40.1	60	27.3	6	13	270	0.00	29.874 
12:05	40.1	35.9	40.1	61	27.7	6	14	270	0.00	29.874 
12:10	40.3	36.1	40.3	60	27.5	6	15	270	0.00	29.874 
12:15	40.6	38.0	40.6	60	27.8	4	11	248	0.00	29.864 
12:20	41.1	38.6	41.1	61	28.7	4	10	248	0.00	29.864 
12:25	41.2	37.9	41.2	59	28.0	5	11	248	0.00	29.864 
12:30	41.3	38.0	41.3	58	27.7	5	11	248	0.00	29.863 
12:35	41.6	39.2	41.6	59	28.3	4	11	270	0.00	29.863 
12:40	41.6	38.4	41.6	58	27.9	5	14	248	0.00	29.863 
12:45	41.8	38.6	41.8	58	28.1	5	15	270	0.00	29.858 
12:50	41.9	38.7	41.9	58	28.2	5	15	270	0.00	29.858 
12:55	41.9	38.0	41.9	58	28.2	6	16	248	0.00	29.858 
13:00	42.2	39.1	42.2	58	28.5	5	13	270	0.00	29.849 
13:05	42.2	38.4	42.2	58	28.5	6	17	270	0.00	29.849 
13:10	42.2	37.8	42.2	58	28.5	7	14	270	0.00	29.849 
13:15	42.5	39.4	42.5	58	28.8	5	15	270	0.00	29.844 
13:20	42.8	40.6	42.8	58	29.1	4	10	270	0.00	29.844 
13:25	43.1	40.9	43.1	57	28.9	4	13	248	0.00	29.844 
13:30	42.8	38.5	42.8	58	29.1	7	16	270	0.00	29.844 
13:35	43.1	40.1	43.1	58	29.3	5	11	270	0.00	29.844 
13:40	43.2	40.2	43.2	57	29.0	5	12	248	0.00	29.844 
13:45	43.3	41.1	43.3	58	29.5	4	11	270	0.00	29.845 
13:50	43.3	40.3	43.3	57	29.1	5	12	248	0.00	29.845 
13:55	43.2	40.2	43.2	58	29.4	5	12	270	0.00	29.845 
14:00	43.3	40.3	43.3	58	29.5	5	12	270	0.00	29.844 
14:05	43.3	39.7	43.3	58	29.5	6	16	248	0.00	29.844 
14:10	43.6	40.7	43.6	57	29.4	5	13	270	0.00	29.844 
14:15	43.2	39.6	43.2	57	29.0	6	13	270	0.00	29.842 
14:20	43.3	40.3	43.3	57	29.1	5	13	270	0.00	29.842 
14:25	43.3	40.3	43.3	57	29.1	5	12	270	0.00	29.842 
14:30	43.8	41.7	43.8	57	29.6	4	9	248	0.00	29.842 
14:35	43.5	40.6	43.5	58	29.7	5	13	270	0.00	29.842 
14:40	43.5	41.4	43.5	58	29.7	4	11	248	0.00	29.842 
14:45	43.3	40.3	43.3	58	29.5	5	10	270	0.00	29.840 
14:50	43.2	40.2	43.2	58	29.4	5	10	270	0.00	29.840 
14:55	43.2	40.2	43.2	58	29.4	5	14	270	0.00	29.840 
15:00	43.1	38.9	43.1	57	28.9	7	14	270	0.00	29.841 
15:05	43.1	39.5	43.1	57	28.9	6	15	270	0.00	29.841 
15:10	42.9	39.2	42.9	57	28.7	6	14	270	0.00	29.841 
15:15	42.9	42.9	42.9	58	29.2	3	10	248	0.00	29.841 
15:20	42.9	39.9	42.9	58	29.2	5	12	270	0.00	29.841 
15:25	42.8	39.8	42.8	58	29.1	5	11	248	0.00	29.841 
15:30	42.6	39.5	42.6	58	28.9	5	9	248	0.00	29.844 
15:35	42.6	42.6	42.6	58	28.9	3	9	248	0.00	29.844 
15:40	42.5	38.2	42.5	58	28.8	7	15	270	0.00	29.844 
15:45	42.3	38.5	42.3	58	28.6	6	14	270	0.00	29.852 
15:50	42.3	38.5	42.3	58	28.6	6	14	248	0.00	29.852 
15:55	42.2	39.1	42.2	59	28.9	5	12	270	0.00	29.852 
16:00	42.2	39.1	42.2	59	28.9	5	13	248	0.00	29.859 
16:05	42.1	38.3	42.1	59	28.8	6	13	248	0.00	29.859 
16:10	41.9	39.5	41.9	60	29.0	4	12	248	0.00	29.859 
16:15	41.8	41.8	41.8	60	28.9	2	6	270	0.00	29.865 
16:20	41.6	38.4	41.6	61	29.2	5	13	270	0.00	29.865 
16:25	41.5	39.1	41.5	61	29.1	4	14	248	0.00	29.865 
16:30	41.3	41.3	41.3	61	28.9	3	10	248	0.00	29.872 
16:35	41.2	41.2	41.2	62	29.2	3	12	248	0.00	29.872 
16:40	41.1	36.5	41.1	62	29.1	7	14	270	0.00	29.872 
16:45	40.8	37.4	40.8	63	29.2	5	12	248	0.00	29.875 
16:50	40.8	37.4	40.8	63	29.2	5	9	270	0.00	29.875 
16:55	40.6	38.0	40.6	63	29.0	4	14	270	0.00	29.875 
17:00	40.5	40.5	40.5	63	28.9	3	7	270	0.00	29.887 
17:05	40.2	40.2	40.2	62	28.2	3	9	270	0.00	29.887 
17:10	39.9	37.2	39.9	62	28.0	4	12	270	0.00	29.887 
17:15	39.6	36.0	39.6	61	27.3	5	12	270	0.00	29.891 
17:20	39.3	36.5	39.3	62	27.4	4	12	270	0.00	29.891 
17:25	39.2	36.4	39.2	62	27.3	4	12	270	0.00	29.891 
17:30	39.1	35.4	39.1	62	27.2	5	12	270	0.00	29.897 
17:35	38.8	38.8	38.8	63	27.3	3	10	270	0.00	29.897 
17:40	38.5	38.5	38.5	63	27.0	3	11	248	0.00	29.897 
17:45	38.3	35.4	38.3	64	27.2	4	8	248	0.00	29.903 
17:50	38.0	35.0	38.0	64	26.9	4	12	270	0.00	29.903 
17:55	37.8	34.8	37.8	65	27.1	4	11	270	0.00	29.903 
18:00	37.6	34.5	37.6	65	26.9	4	10	248	0.00	29.911 
18:05	37.5	34.4	37.5	65	26.8	4	10	270	0.00	29.911 
18:10	37.3	34.2	37.3	65	26.6	4	17	270	0.00	29.911 
18:15	37.2	37.2	37.2	66	26.9	3	7	270	0.00	29.919 
18:20	37.0	33.9	37.0	66	26.7	4	12	270	0.00	29.919 
18:25	37.0	32.9	37.0	66	26.7	5	13	270	0.00	29.919 
18:30	36.9	36.9	36.9	66	26.6	3	6	270	0.00	29.924 
18:35	36.8	33.6	36.8	66	26.5	4	13	270	0.00	29.924 
18:40	36.6	33.4	36.6	65	26.0	4	11	270	0.00	29.924 
18:45	36.6	36.6	36.6	65	26.0	3	9	270	0.00	29.928 
18:50	36.5	33.3	36.5	65	25.9	4	13	270	0.00	29.928 
18:55	36.3	36.3	36.3	65	25.7	3	6	270	0.00	29.928 
19:00	36.0	32.7	36.0	63	24.6	4	9	270	0.00	29.943 
19:05	35.8	32.5	35.8	62	24.1	4	11	270	0.00	29.943 
19:10	35.3	35.3	35.3	61	23.2	3	10	270	0.00	29.943 
19:15	35.0	35.0	35.0	62	23.3	3	7	270	0.00	29.949 
19:20	34.9	31.4	34.9	61	22.8	4	9	270	0.00	29.949 
19:25	34.4	30.8	34.4	61	22.4	4	11	270	0.00	29.949 
19:30	34.3	30.7	34.3	62	22.7	4	9	270	0.00	29.960 
19:35	34.1	34.1	34.1	63	22.8	2	5	270	0.00	29.960 
19:40	34.0	34.0	34.0	64	23.1	2	4	248	0.00	29.960 
19:45	33.5	33.5	33.5	64	22.6	3	9	270	0.00	29.963 
19:50	33.2	33.2	33.2	65	22.7	3	9	270	0.00	29.963 
19:55	32.9	32.9	32.9	65	22.4	3	11	270	0.00	29.963 
20:00	32.5	32.5	32.5	65	22.1	2	6	270	0.00	29.968 
20:05	32.5	32.5	32.5	66	22.4	3	9	270	0.00	29.968 
20:10	32.5	28.7	32.5	65	22.1	4	10	270	0.00	29.968 
20:15	32.5	32.5	32.5	65	22.1	3	10	270	0.00	29.978 
20:20	32.5	32.5	32.5	65	22.1	3	6	270	0.00	29.978 
20:25	32.5	32.5	32.5	65	22.1	3	13	270	0.00	29.978 
20:30	32.4	28.5	32.4	65	22.0	4	12	270	0.00	29.979 
20:35	32.4	32.4	32.4	66	22.3	3	12	270	0.00	29.979 
20:40	32.1	27.2	32.1	63	20.9	5	15	270	0.00	29.979 
20:45	31.8	27.8	31.8	58	18.7	4	11	270	0.00	29.982 
20:50	31.6	27.6	31.6	58	18.5	4	12	270	0.00	29.982 
20:55	31.5	31.5	31.5	59	18.8	3	8	270	0.00	29.982 
21:00	31.3	31.3	31.3	59	18.7	3	10	270	0.00	29.995 
21:05	31.2	31.2	31.2	59	18.6	3	7	270	0.00	29.995 
21:10	31.0	31.0	31.0	59	18.4	2	5	270	0.00	29.995 
21:15	31.0	31.0	31.0	59	18.4	2	6	270	0.00	29.995 
21:20	30.9	30.9	30.9	59	18.3	2	5	270	0.00	29.995 
21:25	30.9	30.9	30.9	60	18.7	2	6	270	0.00	29.995 
21:30	30.9	30.9	30.9	60	18.7	2	7	270	0.00	30.001 
21:35	30.9	30.9	30.9	60	18.7	3	9	292	0.00	30.001 
21:40	30.9	30.9	30.9	60	18.7	3	7	270	0.00	30.001 
21:45	30.9	30.9	30.9	60	18.7	3	11	270	0.00	30.005 
21:50	30.9	30.9	30.9	60	18.7	3	6	270	0.00	30.005 
21:55	30.9	30.9	30.9	61	19.1	2	7	270	0.00	30.005 
22:00	30.9	30.9	30.9	61	19.1	2	5	270	0.00	30.002 
22:05	30.9	30.9	30.9	61	19.1	2	6	270	0.00	30.002 
22:10	30.7	30.7	30.7	61	18.9	2	5	270	0.00	30.002 
22:15	30.7	30.7	30.7	61	18.9	3	13	270	0.00	30.006 
22:20	30.7	30.7	30.7	61	18.9	2	4	248	0.00	30.006 
22:25	30.7	30.7	30.7	61	18.9	3	6	270	0.00	30.006 
22:30	30.7	30.7	30.7	61	18.9	1	4	248	0.00	30.010 
22:35	30.7	30.7	30.7	61	18.9	1	9	248	0.00	30.010 
22:40	30.6	30.6	30.6	61	18.8	2	4	270	0.00	30.010 
22:45	30.6	30.6	30.6	61	18.8	2	4	270	0.00	30.012 
22:50	30.6	30.6	30.6	62	19.2	2	6	270	0.00	30.012 
22:55	30.4	30.4	30.4	61	18.6	2	6	270	0.00	30.012 
23:00	30.4	30.4	30.4	62	19.0	1	4	292	0.00	30.014 
23:05	30.3	30.3	30.3	61	18.5	2	9	248	0.00	30.014 
23:10	30.3	30.3	30.3	62	18.9	2	5	270	0.00	30.014 
23:15	30.3	30.3	30.3	62	18.9	2	7	270	0.00	30.020 
23:20	30.3	30.3	30.3	62	18.9	1	4	248	0.00	30.020 
23:25	30.4	30.4	30.4	62	19.0	2	7	270	0.00	30.020 
23:30	30.4	30.4	30.4	62	19.0	1	5	270	0.00	30.020 
23:35	30.4	30.4	30.4	62	19.0	2	6	248	0.00	30.020 
23:40	30.4	30.4	30.4	63	19.3	1	6	248	0.00	30.020 
23:45	30.4	30.4	30.4	63	19.3	1	3	248	0.00	30.022 
23:50	30.4	30.4	30.4	63	19.3	2	5	270	0.00	30.022 
23:55	30.4	30.4	30.4	62	19.0	2	5	270	0.00	30.022 

CoCoRaHS
IN-AL-39
A2 Web Hosting
Creative Commons License
GoDaddy
Look for:

loaded 2017-10-17 09:29:33 • last modified 2010-11-18 10:43:29
Privacy PolicyDisclaimer
• wx.awcolley.com is powered by PmWiki v.2002016 •
• all content (unless otherwise noted) © 2017 A W Colley